Time;durP1;ratioP1;P1;durP2;ratioP2;P2;SDS_P1;SDS_P2;PMS_P1;PMS_P2;Temp;Humidity;BMP_temperature;BMP_pressure;BME280_temperature;BME280_humidity;BME280_pressure;Samples;Min_cycle;Max_cycle;Signal;HPM_P1;HPM_P2
2024/02/22 00:00:58;;;;;;;22.50;12.90;;;;;;;8.63;100.00;99825.13;5068491;28;20115;-72
2024/02/22 00:03:23;;;;;;;22.90;13.27;;;;;;;8.63;100.00;99825.13;5067907;28;20515;-87
2024/02/22 00:05:48;;;;;;;23.15;13.68;;;;;;;8.63;100.00;99827.75;5069643;28;20445;-86
2024/02/22 00:08:14;;;;;;;24.38;14.38;;;;;;;8.66;100.00;99816.34;5066893;28;20049;-86
2024/02/22 00:10:39;;;;;;;22.98;13.98;;;;;;;8.64;100.00;99812.84;5069296;28;20406;-81
2024/02/22 00:13:04;;;;;;;23.65;14.88;;;;;;;8.63;100.00;99825.13;5067786;28;20499;-84
2024/02/22 00:15:30;;;;;;;24.08;14.57;;;;;;;8.66;100.00;99805.78;5068719;28;20068;-83
2024/02/22 00:17:56;;;;;;;23.13;13.60;;;;;;;8.66;100.00;99798.75;5068869;28;20024;-71
2024/02/22 00:20:22;;;;;;;24.10;13.75;;;;;;;8.70;100.00;99794.38;5067768;28;20028;-72
2024/02/22 00:22:47;;;;;;;23.77;13.88;;;;;;;8.71;100.00;99794.34;5066404;28;20024;-73
2024/02/22 00:25:13;;;;;;;24.25;13.95;;;;;;;8.73;100.00;99795.22;5063500;28;20372;-72
2024/02/22 00:27:39;;;;;;;23.33;13.73;;;;;;;8.71;100.00;99786.44;5066778;28;20025;-71
2024/02/22 00:30:12;;;;;;;23.33;12.93;;;;;;;8.77;100.00;99787.31;5063060;28;20024;-71
2024/02/22 00:32:37;;;;;;;;;;;;;;;8.83;100.00;99774.97;5067282;28;20028;-71
2024/02/22 00:35:05;;;;;;;22.83;13.05;;;;;;;8.78;100.00;99770.59;5064204;28;20393;-72
2024/02/22 00:37:30;;;;;;;24.08;14.05;;;;;;;8.79;100.00;99772.38;5065343;28;20476;-71
2024/02/22 00:39:56;;;;;;;22.83;13.55;;;;;;;8.77;100.00;99764.47;5065505;28;20037;-73
2024/02/22 00:42:21;;;;;;;23.95;13.90;;;;;;;8.80;100.00;99763.59;5063975;28;20029;-71
2024/02/22 00:44:47;;;;;;;23.98;14.05;;;;;;;8.80;100.00;99760.94;5066469;28;20055;-71
2024/02/22 00:47:12;;;;;;;23.67;13.02;;;;;;;8.83;100.00;99759.16;5062009;28;20078;-72
2024/02/22 00:49:37;;;;;;;23.50;13.70;;;;;;;8.86;100.00;99745.09;5065972;28;20119;-73
2024/02/22 00:52:03;;;;;;;23.60;13.77;;;;;;;8.86;100.00;99750.38;5064328;28;20025;-72
2024/02/22 00:54:28;;;;;;;23.15;13.23;;;;;;;8.85;100.00;99746.88;5064647;28;20506;-73
2024/02/22 00:56:53;;;;;;;23.30;13.73;;;;;;;8.87;100.00;99737.19;5065345;28;20360;-72
2024/02/22 00:59:19;;;;;;;22.27;12.55;;;;;;;8.91;100.00;99727.47;5063444;28;20047;-71
2024/02/22 01:01:44;;;;;;;22.90;12.65;;;;;;;8.91;100.00;99743.28;5066200;28;20095;-75
2024/02/22 01:04:11;;;;;;;22.63;12.73;;;;;;;8.93;100.00;99740.63;5061622;28;20128;-72
2024/02/22 01:06:37;;;;;;;22.67;12.68;;;;;;;8.96;100.00;99730.09;5065666;28;20051;-73
2024/02/22 01:09:03;;;;;;;23.10;13.02;;;;;;;8.92;100.00;99729.22;5063897;28;20562;-82
2024/02/22 01:11:29;;;;;;;22.67;12.45;;;;;;;8.94;100.00;99732.75;5063098;28;20033;-85
2024/02/22 01:13:54;;;;;;;22.63;12.43;;;;;;;8.97;100.00;99722.19;5063921;28;20043;-84
2024/02/22 01:16:20;;;;;;;22.25;11.98;;;;;;;8.98;100.00;99723.91;5063069;28;20029;-83
2024/02/22 01:18:45;;;;;;;22.73;13.00;;;;;;;8.99;100.00;99720.41;5065920;28;20060;-78
2024/02/22 01:21:12;;;;;;;22.17;12.10;;;;;;;9.00;100.00;99727.44;5062646;28;20079;-74
2024/02/22 01:23:37;;;;;;;22.67;12.63;;;;;;;9.02;100.00;99716.88;5065293;28;20032;-75
2024/02/22 01:26:03;;;;;;;23.58;13.05;;;;;;;9.02;100.00;99719.50;5064240;28;20040;-77
2024/02/22 01:28:28;;;;;;;22.88;12.73;;;;;;;9.06;100.00;99718.59;5064339;28;20414;-82
2024/02/22 01:30:54;;;;;;;23.65;13.15;;;;;;;9.05;100.00;99704.53;5065256;28;20029;-82
2024/02/22 01:33:19;;;;;;;22.70;12.25;;;;;;;9.08;100.00;99707.13;5065096;28;20106;-78
2024/02/22 01:35:44;;;;;;;24.23;13.35;;;;;;;9.10;100.00;99701.00;5068980;28;20040;-83
2024/02/22 01:38:10;;;;;;;23.67;13.07;;;;;;;9.10;100.00;99701.00;5063392;28;20036;-81
2024/02/22 01:40:35;;;;;;;24.42;12.77;;;;;;;9.12;100.00;99691.31;5066199;28;20480;-85
2024/02/22 01:43:01;;;;;;;23.70;12.63;;;;;;;9.11;100.00;99686.94;5063598;28;20024;-83
2024/02/22 01:45:26;;;;;;;24.23;13.60;;;;;;;9.11;100.00;99693.06;5063502;28;20029;-83
2024/02/22 01:47:53;;;;;;;23.20;13.00;;;;;;;9.14;100.00;99686.91;5065038;28;20039;-81
2024/02/22 01:50:19;;;;;;;23.17;13.05;;;;;;;9.12;100.00;99688.69;5062494;28;20025;-84
2024/02/22 01:52:45;;;;;;;23.85;12.60;;;;;;;9.14;100.00;99686.91;5065521;28;20129;-83
2024/02/22 01:55:13;;;;;;;23.70;12.25;;;;;;;9.16;100.00;99688.66;5062365;28;20395;-78
2024/02/22 01:57:38;;;;;;;23.25;12.13;;;;;;;9.15;100.00;99680.75;5065140;28;20025;-84
2024/02/22 02:00:11;;;;;;;22.80;12.35;;;;;;;9.15;100.00;99678.97;5062652;28;20482;-80
2024/02/22 02:02:37;;;;;;;23.38;12.07;;;;;;;9.17;100.00;99676.31;5064377;28;20135;-82
2024/02/22 02:05:04;;;;;;;22.90;12.27;;;;;;;9.16;100.00;99675.47;5062716;28;20109;-87
2024/02/22 02:07:29;;;;;;;22.73;11.55;;;;;;;9.18;100.00;99678.94;5063125;28;20037;-86
2024/02/22 02:09:55;;;;;;;23.73;12.10;;;;;;;9.17;100.00;99674.56;5062955;28;20032;-76
2024/02/22 02:12:27;;;;;;;22.42;11.35;;;;;;;9.18;100.00;99667.53;5061997;28;20028;-86
2024/02/22 02:14:53;;;;;;;22.17;11.57;;;;;;;9.19;100.00;99669.28;5064004;28;20532;-87
2024/02/22 02:17:19;;;;;;;22.60;11.57;;;;;;;9.19;100.00;99658.75;5061964;28;20025;-84
2024/02/22 02:19:44;;;;;;;23.92;12.30;;;;;;;9.17;100.00;99658.72;5064694;28;20033;-83
2024/02/22 02:22:27;;;;;;;22.55;11.55;;;;;;;9.19;100.00;99666.66;5061510;28;20103;-87
2024/02/22 02:25:02;;;;;;;22.80;11.40;;;;;;;9.23;100.00;99657.81;5059288;28;20045;-87
2024/02/22 02:27:28;;;;;;;23.30;11.15;;;;;;;9.21;100.00;99652.53;5063422;28;20025;-86
2024/02/22 02:29:53;;;;;;;24.27;12.90;;;;;;;9.19;100.00;99650.84;5060903;28;20359;-84
2024/02/22 02:32:19;;;;;;;24.15;13.10;;;;;;;9.18;100.00;99646.44;5064281;28;20025;-87
2024/02/22 02:34:44;;;;;;;23.90;12.20;;;;;;;9.20;100.00;99644.66;5061149;28;20040;-87
2024/02/22 02:37:11;;;;;;;24.23;12.60;;;;;;;9.19;100.00;99649.06;5062818;28;20017;-84
2024/02/22 02:39:36;;;;;;;24.92;12.65;;;;;;;9.20;100.00;99634.09;5061640;28;20025;-84
2024/02/22 02:42:02;;;;;;;25.85;13.07;;;;;;;9.20;100.00;99628.84;5062288;28;20028;-81
2024/02/22 02:44:27;;;;;;;25.10;12.88;;;;;;;9.22;100.00;99624.44;5061443;28;20064;-78
2024/02/22 02:46:53;;;;;;;24.65;13.18;;;;;;;9.20;100.00;99619.19;5061645;28;20071;-79
2024/02/22 02:49:18;;;;;;;24.63;12.77;;;;;;;9.21;100.00;99612.13;5064316;28;20490;-84
2024/02/22 02:51:44;;;;;;;24.98;13.38;;;;;;;9.20;100.00;99613.91;5061123;28;20036;-82
2024/02/22 02:54:09;;;;;;;25.88;13.10;;;;;;;9.21;100.00;99605.09;5062959;28;20028;-80
2024/02/22 02:56:34;;;;;;;25.60;13.45;;;;;;;9.20;100.00;99613.00;5062436;28;20028;-77
2024/02/22 02:59:00;;;;;;;25.42;13.30;;;;;;;9.20;100.00;99613.91;5063049;28;20110;-78
2024/02/22 03:01:25;;;;;;;25.83;13.90;;;;;;;9.19;100.00;99608.66;5063789;28;20028;-85
2024/02/22 03:03:50;;;;;;;27.23;14.30;;;;;;;9.17;100.00;99611.28;5061958;28;20045;-79
2024/02/22 03:06:16;;;;;;;26.73;13.93;;;;;;;9.17;100.00;99606.00;5062918;28;20479;-84
2024/02/22 03:08:41;;;;;;;26.45;13.52;;;;;;;9.18;100.00;99609.53;5061007;28;20079;-84
2024/02/22 03:11:07;;;;;;;28.90;14.60;;;;;;;9.17;100.00;99606.00;5063433;28;20055;-75
2024/02/22 03:13:33;;;;;;;27.65;13.95;;;;;;;9.20;100.00;99600.72;5061893;28;20024;-85
2024/02/22 03:15:58;;;;;;;27.95;13.50;;;;;;;9.18;100.00;99605.13;5062461;28;20417;-80
2024/02/22 03:18:25;;;;;;;27.35;13.80;;;;;;;9.21;100.00;99599.81;5061814;28;20067;-84
2024/02/22 03:20:51;;;;;;;28.05;14.20;;;;;;;9.17;100.00;99603.34;5060987;28;20463;-82
2024/02/22 03:23:16;;;;;;;28.77;14.43;;;;;;;9.15;100.00;99588.47;5064413;28;20040;-85
2024/02/22 03:25:42;;;;;;;28.48;14.00;;;;;;;9.19;100.00;99587.56;5060422;28;20128;-85
2024/02/22 03:28:10;;;;;;;28.00;13.93;;;;;;;9.16;100.00;99591.09;5063186;28;20033;-83
2024/02/22 03:30:35;;;;;;;27.90;13.55;;;;;;;9.16;100.00;99580.53;5061507;28;20029;-84
2024/02/22 03:33:01;;;;;;;29.92;14.65;;;;;;;9.12;100.00;99570.03;5062142;28;20040;-85
2024/02/22 03:35:27;;;;;;;28.90;13.80;;;;;;;9.17;100.00;99578.75;5062673;28;20059;-85
2024/02/22 03:37:52;;;;;;;28.33;14.00;;;;;;;9.13;100.00;99575.31;5061041;28;20017;-85
2024/02/22 03:40:17;;;;;;;29.30;14.27;;;;;;;9.15;100.00;99572.66;5064037;28;20120;-72
2024/02/22 03:42:44;;;;;;;29.90;14.18;;;;;;;9.10;100.00;99562.16;5056282;28;20025;-74
2024/02/22 03:45:09;;;;;;;30.50;14.80;;;;;;;9.07;100.00;99559.53;5063336;28;20028;-86
2024/02/22 03:47:35;;;;;;;29.27;14.48;;;;;;;9.09;100.00;99541.94;5060241;28;20036;-87
2024/02/22 03:50:03;;;;;;;31.38;14.80;;;;;;;9.07;100.00;99541.06;5060881;28;20551;-84
2024/02/22 03:52:28;;;;;;;28.88;14.13;;;;;;;9.04;100.00;99549.00;5062312;28;20035;-86
2024/02/22 03:54:54;;;;;;;27.88;14.00;;;;;;;9.06;100.00;99545.47;5059996;28;20025;-87
2024/02/22 03:57:19;;;;;;;31.42;14.13;;;;;;;9.02;100.00;99541.13;5065985;28;20527;-85
2024/02/22 03:59:44;;;;;;;30.00;14.20;;;;;;;9.04;100.00;99542.00;5063054;28;20037;-86
2024/02/22 04:02:10;;;;;;;29.70;13.98;;;;;;;9.05;100.00;99537.59;5066605;28;20048;-82
2024/02/22 04:04:35;;;;;;;30.83;14.02;;;;;;;8.99;100.00;99541.16;5064987;28;20029;-86
2024/02/22 04:07:03;;;;;;;29.55;13.15;;;;;;;9.01;100.00;99546.41;5065548;28;20033;-83
2024/02/22 04:09:28;;;;;;;29.30;12.68;;;;;;;8.99;100.00;99541.16;5065957;28;20039;-84
2024/02/22 04:11:54;;;;;;;28.80;13.52;;;;;;;9.00;100.00;99537.63;5064903;28;20025;-74
2024/02/22 04:14:20;;;;;;;30.90;13.48;;;;;;;8.97;100.00;99523.59;5066908;28;20455;-86
2024/02/22 04:16:45;;;;;;;28.85;12.60;;;;;;;9.01;100.00;99518.31;5063674;28;20059;-73
2024/02/22 04:19:11;;;;;;;27.10;12.30;;;;;;;8.96;100.00;99525.38;5066931;28;20028;-74
2024/02/22 04:21:42;;;;;;;29.30;12.70;;;;;;;8.95;100.00;99526.25;5064459;28;20029;-72
2024/02/22 04:24:08;;;;;;;29.42;12.00;;;;;;;8.93;100.00;99520.13;5066222;28;20029;-71
2024/02/22 04:26:46;;;;;;;27.65;11.85;;;;;;;8.97;100.00;99520.97;5063839;28;20039;-72
2024/02/22 04:29:12;;;;;;;26.77;11.95;;;;;;;8.87;100.00;99510.53;5066946;28;20036;-72
2024/02/22 04:31:37;;;;;;;28.17;11.85;;;;;;;8.88;100.00;99508.75;5064199;28;20032;-71
2024/02/22 04:34:02;;;;;;;30.25;11.80;;;;;;;8.89;100.00;99521.91;5065255;28;20120;-72
2024/02/22 04:36:28;;;;;;;27.02;11.50;;;;;;;8.89;100.00;99510.50;5065586;28;20029;-73
2024/02/22 04:38:54;;;;;;;28.58;11.85;;;;;;;8.87;100.00;99507.03;5062584;28;20037;-72
2024/02/22 04:41:23;;;;;;;29.70;12.05;;;;;;;8.89;100.00;99507.88;5065178;28;20483;-72
2024/02/22 04:43:48;;;;;;;28.25;11.60;;;;;;;8.86;100.00;99507.91;5062180;28;20044;-71
2024/02/22 04:46:13;;;;;;;25.88;10.20;;;;;;;8.91;100.00;99503.44;5058917;28;20037;-72
2024/02/22 04:48:39;;;;;;;28.27;11.70;;;;;;;8.85;100.00;99504.41;5065905;28;20463;-72
2024/02/22 04:51:04;;;;;;;28.58;11.73;;;;;;;8.83;100.00;99498.25;5064427;28;20177;-73
2024/02/22 04:53:29;;;;;;;28.42;10.45;;;;;;;8.85;100.00;99493.88;5064627;28;20036;-72
2024/02/22 04:55:55;;;;;;;27.92;11.35;;;;;;;8.80;100.00;99489.53;5065972;28;20028;-72
2024/02/22 04:58:20;;;;;;;28.90;11.60;;;;;;;8.78;100.00;99479.00;5063154;28;20095;-72
2024/02/22 05:00:46;;;;;;;29.48;11.50;;;;;;;8.77;100.00;99479.03;5066270;28;20490;-72
2024/02/22 05:03:12;;;;;;;29.45;11.45;;;;;;;8.79;100.00;99485.13;5063106;28;20049;-72
2024/02/22 05:05:38;;;;;;;27.67;11.25;;;;;;;8.78;100.00;99480.75;5065369;28;20166;-73
2024/02/22 05:08:04;;;;;;;28.65;11.32;;;;;;;8.79;100.00;99469.31;5063290;28;20522;-72
2024/02/22 05:10:31;;;;;;;26.40;11.52;;;;;;;8.78;100.00;99475.47;5064355;28;20033;-71
2024/02/22 05:12:57;;;;;;;26.40;11.82;;;;;;;8.78;100.00;99462.31;5064947;28;20407;-71
2024/02/22 05:15:22;;;;;;;28.00;11.85;;;;;;;8.76;100.00;99458.81;5061746;28;20025;-71
2024/02/22 05:17:48;;;;;;;26.73;11.43;;;;;;;8.74;100.00;99464.13;5064974;28;20121;-72
2024/02/22 05:20:13;;;;;;;27.25;11.73;;;;;;;8.73;100.00;99455.31;5062549;28;20025;-72
2024/02/22 05:22:39;;;;;;;27.80;11.88;;;;;;;8.72;100.00;99463.22;5065136;28;20093;-72
2024/02/22 05:25:08;;;;;;;27.50;11.77;;;;;;;8.73;100.00;99460.59;5063892;28;20036;-72
2024/02/22 05:27:34;;;;;;;29.38;11.90;;;;;;;8.70;100.00;99452.72;5064357;28;20454;-72
2024/02/22 05:29:59;;;;;;;28.70;11.90;;;;;;;8.72;100.00;99447.44;5063160;28;20063;-72
2024/02/22 05:32:24;;;;;;;27.80;12.20;;;;;;;8.72;100.00;99444.78;5063478;28;20057;-85
2024/02/22 05:34:50;;;;;;;27.42;11.93;;;;;;;8.72;100.00;99448.31;5065334;28;20090;-76
2024/02/22 05:37:15;;;;;;;29.15;12.60;;;;;;;8.71;100.00;99436.03;5062150;28;20033;-84
2024/02/22 05:39:40;;;;;;;27.48;12.27;;;;;;;8.71;100.00;99445.69;5065189;28;20064;-76
2024/02/22 05:42:06;;;;;;;28.25;12.35;;;;;;;8.70;100.00;99438.69;5063116;28;20028;-75
2024/02/22 05:44:31;;;;;;;28.23;11.63;;;;;;;8.68;100.00;99438.69;5063741;28;20031;-74
2024/02/22 05:46:57;;;;;;;27.00;12.35;;;;;;;8.69;100.00;99442.19;5064288;28;20039;-73
2024/02/22 05:49:22;;;;;;;28.00;11.82;;;;;;;8.66;100.00;99427.28;5062606;28;20376;-73
2024/02/22 05:51:48;;;;;;;27.05;12.07;;;;;;;8.65;100.00;99419.41;5065572;28;20037;-82
2024/02/22 05:54:14;;;;;;;28.58;11.82;;;;;;;8.64;100.00;99417.69;5061704;28;20540;-85
2024/02/22 05:56:39;;;;;;;27.60;11.82;;;;;;;8.59;100.00;99406.28;5064524;28;20451;-78
2024/02/22 05:59:06;;;;;;;26.27;12.18;;;;;;;8.58;100.00;99408.06;5063250;28;20069;-83
2024/02/22 06:01:33;;;;;;;28.80;12.05;;;;;;;8.53;100.00;99404.59;5062060;28;20032;-82
2024/02/22 06:03:58;;;;;;;27.75;11.48;;;;;;;8.45;100.00;99395.91;5063660;28;20049;-85
2024/02/22 06:06:23;;;;;;;27.92;11.48;;;;;;;8.44;100.00;99399.41;5062186;28;20029;-85
2024/02/22 06:08:49;;;;;;;25.90;11.00;;;;;;;8.33;100.00;99384.59;5064969;28;20020;-82
2024/02/22 06:11:15;;;;;;;26.33;11.65;;;;;;;8.36;100.00;99381.91;5061686;28;20028;-72
2024/02/22 06:13:41;;;;;;;28.17;12.02;;;;;;;8.35;100.00;99376.66;5064612;28;20033;-72
2024/02/22 06:16:06;;;;;;;26.88;11.52;;;;;;;8.30;100.00;99375.81;5061228;28;20039;-71
2024/02/22 06:18:33;;;;;;;28.98;12.32;;;;;;;8.26;100.00;99360.97;5063052;28;20549;-72
2024/02/22 06:20:59;;;;;;;27.58;12.27;;;;;;;8.21;100.00;99366.25;5061821;28;20379;-72
2024/02/22 06:23:24;;;;;;;28.42;11.80;;;;;;;8.14;100.00;99370.72;5061926;28;20029;-72
2024/02/22 06:25:51;;;;;;;27.38;12.23;;;;;;;8.17;100.00;99368.06;5064408;28;20037;-72
2024/02/22 06:28:16;;;;;;;28.42;11.88;;;;;;;8.12;100.00;99372.47;5057615;28;20025;-72
2024/02/22 06:30:42;;;;;;;27.05;11.88;;;;;;;8.13;100.00;99368.09;5064111;28;20374;-71
2024/02/22 06:33:08;;;;;;;27.15;11.43;;;;;;;8.13;100.00;99363.69;5062372;28;20032;-72
2024/02/22 06:35:33;;;;;;;26.13;11.52;;;;;;;8.15;100.00;99366.31;5062898;28;20428;-72
2024/02/22 06:37:59;;;;;;;26.90;12.07;;;;;;;8.20;100.00;99377.69;5063400;28;20039;-71
2024/02/22 06:40:25;;;;;;;27.50;13.02;;;;;;;8.18;100.00;99363.66;5062006;28;20423;-72
2024/02/22 06:42:50;;;;;;;27.23;12.73;;;;;;;8.16;100.00;99360.19;5063093;28;20054;-71
2024/02/22 06:45:18;;;;;;;28.92;12.07;;;;;;;8.12;100.00;99351.41;5060887;28;20060;-72
2024/02/22 06:47:44;;;;;;;28.40;12.98;;;;;;;8.11;100.00;99343.53;5064349;28;20029;-71
2024/02/22 06:50:09;;;;;;;27.30;12.77;;;;;;;8.09;100.00;99343.56;5061603;28;20039;-72
2024/02/22 06:52:35;;;;;;;28.02;12.48;;;;;;;8.10;100.00;99328.66;5062810;28;20075;-72
2024/02/22 06:55:01;;;;;;;28.55;12.75;;;;;;;8.10;100.00;99331.28;5061396;28;20036;-72
2024/02/22 06:57:26;;;;;;;28.15;13.07;;;;;;;8.09;100.00;99333.03;5061620;28;20037;-72
2024/02/22 06:59:51;;;;;;;26.33;12.75;;;;;;;8.10;100.00;99318.13;5064005;28;20107;-71
2024/02/22 07:02:18;;;;;;;26.75;12.20;;;;;;;8.11;100.00;99306.69;5059402;28;20045;-71
2024/02/22 07:04:45;;;;;;;26.58;11.98;;;;;;;8.13;100.00;99304.94;5063933;28;20041;-71
2024/02/22 07:07:11;;;;;;;27.38;11.77;;;;;;;8.15;100.00;99314.53;5060024;28;20383;-71
2024/02/22 07:09:38;;;;;;;27.20;12.85;;;;;;;8.14;100.00;99310.19;5063004;28;20040;-71
2024/02/22 07:12:04;;;;;;;27.25;12.30;;;;;;;8.20;100.00;99290.81;5062400;28;20028;-71
2024/02/22 07:14:29;;;;;;;28.70;13.68;;;;;;;8.18;100.00;99282.03;5061735;28;20067;-71
2024/02/22 07:16:54;;;;;;;28.52;13.85;;;;;;;8.18;100.00;99272.41;5063624;28;20060;-72
2024/02/22 07:19:21;;;;;;;28.95;13.95;;;;;;;8.19;100.00;99258.34;5059246;28;20070;-72
2024/02/22 07:21:46;;;;;;;27.10;14.32;;;;;;;8.24;100.00;99267.94;5056655;28;20017;-71
2024/02/22 07:24:12;;;;;;;27.63;13.75;;;;;;;8.24;100.00;99268.81;5063588;28;20028;-72
2024/02/22 07:26:38;;;;;;;27.63;13.35;;;;;;;8.26;100.00;99258.28;5061575;28;20399;-72
2024/02/22 07:29:04;;;;;;;28.02;13.75;;;;;;;8.26;100.00;99263.56;5060962;28;20036;-71
2024/02/22 07:31:29;;;;;;;26.23;13.18;;;;;;;8.28;100.00;99267.88;5064200;28;20029;-72
2024/02/22 07:33:55;;;;;;;26.05;12.65;;;;;;;8.31;100.00;99272.25;5064974;28;20517;-72
2024/02/22 07:36:20;;;;;;;26.70;13.13;;;;;;;8.35;100.00;99266.94;5068135;28;20418;-78
2024/02/22 07:38:46;;;;;;;24.75;12.80;;;;;;;8.39;100.00;99278.31;5060303;28;20365;-86
2024/02/22 07:41:15;;;;;;;25.08;12.25;;;;;;;8.41;100.00;99273.91;5065811;28;20122;-81
2024/02/22 07:43:45;;;;;;;24.52;12.10;;;;;;;8.47;100.00;99268.56;5065186;28;20492;-89
2024/02/22 07:46:11;;;;;;;25.45;12.57;;;;;;;8.50;100.00;99267.69;5067114;28;20155;-84
2024/02/22 07:48:40;;;;;;;24.67;11.77;;;;;;;8.52;100.00;99250.97;5064318;28;20562;-88
2024/02/22 07:51:07;;;;;;;25.15;12.15;;;;;;;8.50;100.00;99251.88;5066260;28;20515;-88
2024/02/22 07:53:36;;;;;;;24.58;12.18;;;;;;;8.52;100.00;99250.97;5066130;28;20475;-74
2024/02/22 07:56:07;;;;;;;25.30;12.25;;;;;;;8.57;100.00;99237.75;5065471;28;20048;-87
2024/02/22 07:58:54;;;;;;;24.08;11.68;;;;;;;8.62;100.00;99229.78;5065896;28;20029;-81
2024/02/22 08:01:19;;;;;;;23.50;10.77;;;;;;;8.55;100.00;99232.50;5060412;28;20043;-87
2024/02/22 08:03:45;;;;;;;22.70;11.02;;;;;;;8.58;100.00;99217.53;5067400;28;20540;-72
2024/02/22 08:06:12;;;;;;;23.33;11.00;;;;;;;8.60;100.00;99203.44;5064318;28;20037;-74
2024/02/22 08:08:38;;;;;;;22.25;10.52;;;;;;;8.61;100.00;99194.66;5066082;28;20025;-72
2024/02/22 08:11:05;;;;;;;27.13;10.82;;;;;;;8.68;100.00;99185.78;5065612;28;20082;-87
2024/02/22 08:13:30;;;;;;;24.02;11.23;;;;;;;8.65;100.00;99183.19;5065103;28;20029;-89
2024/02/22 08:16:03;;;;;;;23.92;11.75;;;;;;;8.71;100.00;99182.25;5066514;28;20390;-88
2024/02/22 08:18:29;;;;;;;23.42;12.18;;;;;;;8.76;100.00;99169.84;5063735;28;20060;-86
2024/02/22 08:20:54;;;;;;;23.83;12.27;;;;;;;8.83;100.00;99150.44;5066670;28;20056;-88
2024/02/22 08:23:19;;;;;;;24.73;13.07;;;;;;;8.89;100.00;99138.94;5062432;28;20033;-88
2024/02/22 08:25:45;;;;;;;25.13;13.00;;;;;;;8.92;100.00;99138.88;5066962;28;20086;-86
2024/02/22 08:28:10;;;;;;;24.75;13.25;;;;;;;8.94;100.00;99131.84;5064431;28;20037;-88
2024/02/22 08:30:36;;;;;;;24.23;12.98;;;;;;;8.93;100.00;99132.72;5065489;28;20470;-88
2024/02/22 08:33:02;;;;;;;24.52;12.18;;;;;;;8.98;100.00;99133.50;5065588;28;20111;-86
2024/02/22 08:35:27;;;;;;;23.50;11.98;;;;;;;8.99;100.00;99119.44;5064320;28;20029;-87
2024/02/22 08:37:53;;;;;;;23.10;11.82;;;;;;;8.99;100.00;99114.16;5066735;28;20035;-78
2024/02/22 08:40:19;;;;;;;23.08;11.70;;;;;;;9.02;100.00;99108.84;5063412;28;20036;-79
2024/02/22 08:42:44;;;;;;;21.75;10.52;;;;;;;9.03;100.00;99100.03;5065239;28;20097;-72
2024/02/22 08:45:14;;;;;;;21.20;10.43;;;;;;;9.04;100.00;99091.25;5063956;28;20064;-71
2024/02/22 08:47:39;;;;;;;20.50;9.30;;;;;;;9.05;100.00;99086.84;5065948;28;20068;-71
2024/02/22 08:50:06;;;;;;;18.63;7.75;;;;;;;9.08;100.00;99097.31;5064638;28;20082;-71
2024/02/22 08:52:31;;;;;;;19.60;7.68;;;;;;;9.08;100.00;99095.53;5064460;28;20025;-71
2024/02/22 08:54:57;;;;;;;19.15;7.63;;;;;;;9.16;100.00;99089.28;5064545;28;20077;-72
2024/02/22 08:57:22;;;;;;;18.83;7.18;;;;;;;9.18;100.00;99074.31;5063108;28;20483;-72
2024/02/22 08:59:49;;;;;;;18.75;6.95;;;;;;;9.24;100.00;99068.91;5066620;28;20036;-72
2024/02/22 09:02:14;;;;;;;18.33;6.80;;;;;;;9.24;100.00;99061.88;5063036;28;20057;-72
2024/02/22 09:04:40;;;;;;;17.85;6.90;;;;;;;9.29;100.00;99060.91;5065241;28;20033;-72
2024/02/22 09:07:05;;;;;;;17.15;6.30;;;;;;;9.27;100.00;99044.28;5064499;28;20119;-71
2024/02/22 09:09:31;;;;;;;17.90;6.70;;;;;;;9.30;100.00;99023.97;5063919;28;20380;-72
2024/02/22 09:11:56;;;;;;;18.40;6.80;;;;;;;9.31;100.00;99036.25;5065424;28;20454;-71
2024/02/22 09:14:22;;;;;;;18.48;7.03;;;;;;;9.31;100.00;99028.34;5062861;28;20480;-72
2024/02/22 09:16:47;;;;;;;17.80;6.55;;;;;;;9.32;100.00;99018.66;5066003;28;20115;-72
2024/02/22 09:19:12;;;;;;;18.05;6.60;;;;;;;9.33;100.00;99023.06;5062937;28;20067;-72
2024/02/22 09:21:38;;;;;;;17.27;6.45;;;;;;;9.36;100.00;99030.91;5063656;28;20433;-71
2024/02/22 09:24:04;;;;;;;18.15;6.40;;;;;;;9.33;100.00;99001.94;5064149;28;20025;-71
2024/02/22 09:26:30;;;;;;;18.63;6.50;;;;;;;9.34;100.00;98995.78;5063168;28;20044;-87
2024/02/22 09:28:56;;;;;;;18.42;6.45;;;;;;;9.42;100.00;98996.47;5064169;28;20094;-87
2024/02/22 09:31:21;;;;;;;17.35;6.25;;;;;;;9.40;100.00;98995.66;5048125;28;20039;-72
2024/02/22 09:33:47;;;;;;;17.08;6.05;;;;;;;9.49;100.00;98976.13;5061027;28;20464;-81
2024/02/22 09:36:13;;;;;;;16.58;6.18;;;;;;;9.45;100.00;98956.88;5059631;28;20040;-87
2024/02/22 09:38:39;;;;;;;16.88;6.00;;;;;;;9.51;100.00;98955.84;5062737;28;20036;-84
2024/02/22 09:41:05;;;;;;;16.65;6.13;;;;;;;9.54;100.00;98948.78;5058851;28;20027;-82
2024/02/22 09:43:30;;;;;;;16.23;6.00;;;;;;;9.55;100.00;98936.44;5064131;28;20111;-88
2024/02/22 09:45:56;;;;;;;16.83;6.00;;;;;;;9.57;100.00;98937.28;5067157;28;20114;-89
2024/02/22 09:48:22;;;;;;;16.63;6.30;;;;;;;9.64;100.00;98927.44;5061392;28;20061;-88
2024/02/22 09:50:48;;;;;;;16.98;6.05;;;;;;;9.73;100.00;98912.28;5062578;28;20464;-88
2024/02/22 09:53:14;;;;;;;13.13;5.47;;;;;;;9.80;100.00;98902.47;5065143;28;20032;-87
2024/02/22 09:55:40;;;;;;;13.57;5.30;;;;;;;9.76;100.00;98899.03;5062444;28;20036;-87
2024/02/22 09:58:05;;;;;;;13.63;5.30;;;;;;;9.80;100.00;98893.66;5063850;28;20037;-87
2024/02/22 10:00:31;;;;;;;12.43;4.80;;;;;;;9.84;100.00;98882.13;5063624;28;20035;-85
2024/02/22 10:02:56;;;;;;;11.13;4.90;;;;;;;10.01;100.00;98866.75;5062606;28;20404;-77
2024/02/22 10:05:21;;;;;;;10.07;4.47;;;;;;;10.40;100.00;98861.41;5061143;28;20037;-75
2024/02/22 10:07:47;;;;;;;10.95;4.50;;;;;;;10.62;100.00;98866.97;5064979;28;20036;-74
2024/02/22 10:10:23;;;;;;;8.07;3.90;;;;;;;10.67;100.00;98863.34;5061820;28;20025;-78
2024/02/22 10:12:48;;;;;;;9.73;3.72;;;;;;;10.50;100.00;98854.09;5058276;28;20033;-73
2024/02/22 10:15:18;;;;;;;6.70;3.20;;;;;;;10.43;100.00;98840.19;5056251;28;20047;-74
2024/02/22 10:17:43;;;;;;;6.60;3.40;;;;;;;10.49;100.00;98843.59;5065142;28;20016;-74
2024/02/22 10:20:12;;;;;;;7.50;3.30;;;;;;;10.58;100.00;98849.47;5061035;28;20035;-86
2024/02/22 10:22:38;;;;;;;8.18;3.40;;;;;;;10.69;100.00;98851.84;5063901;28;20028;-82
2024/02/22 10:25:12;;;;;;;6.15;3.20;;;;;;;10.75;100.00;98866.66;5062838;28;20040;-83
2024/02/22 10:27:38;;;;;;;7.40;3.42;;;;;;;10.70;100.00;98837.69;5063882;28;20035;-84
2024/02/22 10:30:11;;;;;;;7.97;3.10;;;;;;;10.74;100.00;98826.13;5055633;28;20495;-82
2024/02/22 10:32:41;;;;;;;6.80;2.80;;;;;;;10.70;100.00;98831.53;5055674;28;20048;-85
2024/02/22 10:35:08;;;;;;;6.13;3.08;;;;;;;10.73;100.00;98805.03;5056605;28;20032;-84
2024/02/22 10:37:34;;;;;;;7.30;2.92;;;;;;;10.84;100.00;98796.81;5063052;28;20025;-79
2024/02/22 10:40:02;;;;;;;5.82;2.70;;;;;;;10.96;100.00;98780.56;5060979;28;20028;-85
2024/02/22 10:42:27;;;;;;;4.20;2.63;;;;;;;11.03;100.00;98766.25;5062482;28;20025;-83
2024/02/22 10:44:53;;;;;;;6.18;2.40;;;;;;;11.06;100.00;98766.16;5063160;28;20029;-85
2024/02/22 10:47:19;;;;;;;5.45;2.70;;;;;;;11.09;100.00;98766.06;5061342;28;20079;-85
2024/02/22 10:49:46;;;;;;;7.40;2.70;;;;;;;11.10;100.00;98759.00;5063557;28;20387;-76
2024/02/22 10:52:15;;;;;;;7.03;2.40;;;;;;;11.02;100.00;98758.38;5055838;28;20061;-84
2024/02/22 10:54:45;;;;;;;5.07;2.50;;;;;;;10.90;100.00;98752.53;5059951;28;20430;-88
2024/02/22 10:57:11;;;;;;;4.85;2.60;;;;;;;10.87;100.00;98733.28;5056855;28;20098;-84
2024/02/22 10:59:37;;;;;;;6.15;2.53;;;;;;;10.86;100.00;98716.53;5064135;28;20186;-88
2024/02/22 11:02:03;;;;;;;4.07;2.40;;;;;;;10.85;100.00;98701.59;5060147;28;20477;-80
2024/02/22 11:04:31;;;;;;;6.68;2.70;;;;;;;10.90;100.00;98704.09;5061526;28;20068;-79
2024/02/22 11:07:04;;;;;;;7.45;2.60;;;;;;;10.87;100.00;98701.56;5062288;28;20107;-80
2024/02/22 11:09:29;;;;;;;6.07;2.60;;;;;;;10.86;100.00;98715.69;5062676;28;20033;-71
2024/02/22 11:11:59;;;;;;;6.70;2.70;;;;;;;10.85;100.00;98703.38;5063044;28;20033;-88
2024/02/22 11:14:30;;;;;;;5.68;2.70;;;;;;;10.80;100.00;98693.81;5062209;28;20056;-88